createdAt,value
2023-05-11T03:39:53.610Z,36.90
2023-05-11T03:44:59.932Z,34.40
2023-05-11T03:50:05.322Z,36.50
2023-05-11T03:55:11.737Z,36.10
2023-05-11T04:00:18.295Z,38.70
2023-05-11T04:05:22.228Z,40.83
2023-05-11T04:10:27.809Z,38.40
2023-05-11T04:15:31.412Z,34.58
2023-05-11T04:20:34.703Z,38.40
2023-05-11T04:25:39.363Z,37.08
2023-05-11T04:30:42.660Z,33.58
2023-05-11T04:35:46.039Z,33.10
2023-05-11T04:40:50.931Z,34.17
2023-05-11T04:45:55.831Z,33.58
2023-05-11T04:51:06.071Z,32.95
2023-05-11T04:56:14.262Z,37.60
2023-05-11T05:01:18.698Z,39.55
2023-05-11T05:06:23.101Z,35.10
2023-05-11T05:11:27.666Z,41.92
2023-05-11T05:16:32.565Z,40.45
2023-05-11T05:21:36.369Z,37.05
2023-05-11T05:26:41.260Z,35.10
2023-05-11T05:31:46.772Z,32.97
2023-05-11T05:36:50.191Z,38.13
2023-05-11T05:41:55.348Z,38.15
2023-05-11T05:47:00.218Z,39.28
2023-05-11T05:52:07.617Z,36.55
2023-05-11T05:57:14.404Z,34.92
2023-05-11T06:02:20.806Z,43.72
2023-05-11T06:07:24.391Z,39.38
2023-05-11T06:12:29.192Z,39.33
2023-05-11T06:17:33.930Z,34.92
2023-05-11T06:22:37.447Z,34.95
2023-05-11T06:27:43.107Z,41.33
2023-05-11T06:32:46.796Z,35.83
2023-05-11T06:37:52.965Z,33.00
2023-05-11T06:42:57.887Z,33.50
2023-05-11T06:48:13.889Z,39.53
2023-05-11T06:53:18.071Z,36.47
2023-05-11T06:58:23.037Z,41.83
2023-05-11T07:03:27.685Z,35.50
2023-05-11T07:08:30.961Z,38.30
2023-05-11T07:13:35.751Z,32.28
2023-05-11T07:18:39.052Z,34.67
2023-05-11T07:23:42.904Z,34.25
2023-05-11T07:28:47.489Z,36.60
2023-05-11T07:33:50.932Z,37.10
2023-05-11T07:38:54.215Z,37.92
2023-05-11T07:44:01.881Z,33.90
2023-05-11T07:49:15.702Z,31.58
2023-05-11T07:54:24.178Z,37.53
2023-05-11T07:59:29.067Z,32.90
2023-05-11T08:04:32.986Z,32.72
2023-05-11T08:09:36.562Z,34.78
2023-05-11T08:14:43.139Z,34.55
2023-05-11T08:19:46.678Z,33.28
2023-05-11T08:24:50.808Z,33.03
2023-05-11T08:29:56.794Z,33.05
2023-05-11T08:35:00.236Z,34.05
2023-05-11T08:40:04.514Z,36.45
2023-05-11T08:45:12.664Z,36.10
2023-05-11T08:50:17.279Z,35.97
2023-05-11T08:55:22.217Z,32.08
2023-05-11T09:00:28.584Z,36.08
2023-05-11T09:05:32.689Z,38.30
2023-05-11T09:10:38.198Z,42.30
2023-05-11T09:15:42.890Z,37.17
2023-05-11T09:20:46.536Z,36.75
2023-05-11T09:25:50.600Z,41.95
2023-05-11T09:30:55.531Z,30.35
2023-05-11T09:35:59.778Z,32.80
2023-05-11T09:41:04.905Z,30.83
2023-05-11T09:46:22.006Z,27.65
2023-05-11T09:51:31.977Z,29.67
2023-05-11T09:56:47.681Z,22.60
2023-05-11T10:01:52.901Z,21.63
2023-05-11T10:06:56.330Z,30.98
2023-05-11T10:12:00.170Z,30.98
2023-05-11T10:17:05.337Z,27.38
2023-05-11T10:22:09.156Z,26.10
2023-05-11T10:27:13.838Z,28.80
2023-05-11T10:32:19.576Z,22.73
2023-05-11T10:37:24.422Z,20.13
2023-05-11T10:42:46.957Z,25.73
2023-05-11T10:48:31.291Z,23.92
2023-05-11T10:53:45.698Z,30.98
2023-05-11T10:59:13.960Z,31.30
2023-05-11T11:04:20.615Z,26.92
2023-05-11T11:09:23.976Z,18.83
2023-05-11T11:14:57.578Z,17.20
2023-05-11T11:20:04.536Z,15.35
2023-05-11T11:25:09.101Z,17.42
2023-05-11T11:30:19.950Z,18.83
2023-05-11T11:35:49.879Z,17.38
2023-05-11T11:40:53.380Z,10.30
2023-05-11T11:45:57.655Z,8.48
2023-05-11T11:51:07.192Z,6.93
2023-05-11T11:56:43.842Z,7.75
2023-05-11T12:01:52.482Z,6.85
2023-05-11T12:06:59.346Z,9.93
2023-05-11T12:12:04.063Z,8.15
2023-05-11T12:17:16.033Z,4.97
2023-05-11T12:22:25.804Z,3.97
2023-05-11T12:27:29.118Z,6.00
2023-05-11T12:32:33.161Z,10.18
2023-05-11T12:37:42.625Z,9.10
2023-05-11T12:42:52.027Z,7.57
2023-05-11T12:47:57.067Z,6.60
2023-05-11T12:53:15.967Z,8.90
2023-05-11T12:58:19.413Z,10.50
2023-05-11T13:03:24.050Z,10.48
2023-05-11T13:08:29.310Z,12.82
2023-05-11T13:13:32.682Z,8.77
2023-05-11T13:18:36.143Z,8.98
2023-05-11T13:23:41.251Z,8.70
2023-05-11T13:28:48.492Z,8.77
2023-05-11T13:33:55.802Z,9.50
2023-05-11T13:39:00.796Z,11.40
2023-05-11T13:44:04.485Z,8.82
2023-05-11T13:49:08.642Z,9.10
2023-05-11T13:54:13.331Z,6.75
2023-05-11T13:59:16.832Z,7.75
2023-05-11T14:04:20.591Z,10.30
2023-05-11T14:09:25.547Z,11.43
2023-05-11T14:14:28.827Z,8.68
2023-05-11T14:19:32.535Z,11.70
2023-05-11T14:24:37.667Z,12.75
2023-05-11T14:29:43.267Z,12.05
2023-05-11T14:34:47.881Z,13.43
2023-05-11T14:39:52.655Z,14.70
2023-05-11T14:44:56.117Z,13.43
2023-05-11T14:49:59.838Z,9.35
2023-05-11T14:55:05.400Z,9.13
2023-05-11T15:00:09.853Z,6.43
2023-05-11T15:05:13.684Z,6.97
2023-05-11T15:10:18.336Z,8.20
2023-05-11T15:15:21.702Z,10.55
2023-05-11T15:20:25.285Z,8.88
2023-05-11T15:25:29.917Z,7.90
2023-05-11T15:30:33.886Z,10.23
2023-05-11T15:35:37.854Z,8.65
2023-05-11T15:40:43.319Z,9.30
2023-05-11T15:45:46.711Z,6.00
2023-05-11T15:50:50.474Z,7.07
2023-05-11T15:55:55.809Z,6.60
2023-05-11T16:00:59.366Z,5.53
2023-05-11T16:06:02.897Z,5.50
2023-05-11T16:11:07.621Z,4.40
2023-05-11T16:16:10.971Z,5.45
2023-05-11T16:21:14.710Z,5.97
2023-05-11T16:26:19.487Z,4.78
2023-05-11T16:31:23.068Z,8.68
2023-05-11T16:36:26.400Z,5.32
2023-05-11T16:41:32.534Z,7.03
2023-05-11T16:46:35.973Z,7.35
2023-05-11T16:51:39.461Z,6.57
2023-05-11T16:56:44.256Z,5.47
2023-05-11T17:01:47.567Z,5.45
2023-05-11T17:06:50.920Z,5.15
2023-05-11T17:11:56.507Z,5.32
2023-05-11T17:16:59.639Z,6.00
2023-05-11T17:22:03.590Z,6.63
2023-05-11T17:27:08.705Z,5.10
2023-05-11T17:32:12.096Z,5.18
2023-05-11T17:37:30.512Z,5.82
2023-05-11T17:42:36.260Z,5.28
2023-05-11T17:47:39.531Z,8.07
2023-05-11T17:52:42.884Z,6.75
2023-05-11T17:57:48.320Z,6.10
2023-05-11T18:02:51.573Z,6.78
2023-05-11T18:07:55.636Z,6.18
2023-05-11T18:13:00.168Z,6.28
2023-05-11T18:18:03.576Z,4.93
2023-05-11T18:23:06.879Z,7.22
2023-05-11T18:28:11.425Z,8.40
2023-05-11T18:33:14.762Z,9.30
2023-05-11T18:38:18.034Z,13.60
2023-05-11T18:43:23.969Z,10.05
2023-05-11T18:48:27.316Z,9.93
2023-05-11T18:53:30.571Z,11.15
2023-05-11T18:58:35.247Z,12.80
2023-05-11T19:03:38.614Z,11.15
2023-05-11T19:08:42.181Z,12.82
2023-05-11T19:13:47.589Z,10.35
2023-05-11T19:18:51.108Z,10.65
2023-05-11T19:23:55.329Z,11.00
2023-05-11T19:28:59.930Z,12.40
2023-05-11T19:34:04.026Z,11.95
2023-05-11T19:39:07.877Z,16.90
2023-05-11T19:44:12.459Z,12.10
2023-05-11T19:49:16.344Z,12.77
2023-05-11T19:54:19.570Z,12.90
2023-05-11T19:59:27.377Z,14.23
2023-05-11T20:04:31.777Z,15.05
2023-05-11T20:09:35.077Z,11.52
2023-05-11T20:14:40.981Z,12.45
2023-05-11T20:19:44.137Z,12.88
2023-05-11T20:24:47.412Z,11.00
2023-05-11T20:29:52.079Z,12.93
2023-05-11T20:34:55.197Z,12.30
2023-05-11T20:40:04.855Z,13.88
2023-05-11T20:45:10.829Z,14.60
2023-05-11T20:50:15.975Z,15.43
2023-05-11T20:55:19.741Z,14.13
2023-05-11T21:00:25.065Z,13.48
2023-05-11T21:05:28.415Z,14.60
2023-05-11T21:10:32.157Z,14.07
2023-05-11T21:15:36.707Z,15.15
2023-05-11T21:20:39.884Z,18.27
2023-05-11T21:25:43.009Z,14.85
2023-05-11T21:30:47.714Z,16.38
2023-05-11T21:35:51.398Z,17.08
2023-05-11T21:40:55.466Z,15.55
2023-05-11T21:46:00.263Z,16.13
2023-05-11T21:51:04.019Z,13.43
2023-05-11T21:56:09.881Z,12.77
2023-05-11T22:01:14.525Z,12.98
2023-05-11T22:06:17.748Z,12.82
2023-05-11T22:11:21.680Z,13.00
2023-05-11T22:16:26.423Z,13.10
2023-05-11T22:21:29.673Z,12.32
2023-05-11T22:26:32.824Z,13.85
2023-05-11T22:31:37.808Z,13.30
2023-05-11T22:36:41.119Z,12.95
2023-05-11T22:41:44.343Z,14.02
2023-05-11T22:46:49.674Z,14.00
2023-05-11T22:51:53.036Z,14.00
2023-05-11T22:56:56.245Z,13.57
2023-05-11T23:02:01.851Z,12.35
2023-05-11T23:07:07.836Z,13.20
2023-05-11T23:12:11.247Z,11.90
2023-05-11T23:17:15.853Z,9.90
2023-05-11T23:22:19.089Z,11.52
2023-05-11T23:27:22.284Z,10.80
2023-05-11T23:32:26.876Z,10.65
2023-05-11T23:37:30.057Z,10.27
2023-05-11T23:42:33.222Z,11.02
2023-05-11T23:47:38.005Z,10.68
2023-05-11T23:52:41.335Z,10.07
2023-05-11T23:57:45.091Z,9.88
